createdAt,value
2022-08-22T00:00:22.040Z,94563.84
2022-08-22T00:02:59.616Z,94601.25
2022-08-22T00:03:02.739Z,94598.81
2022-08-22T00:06:10.694Z,94578.81
2022-08-22T00:09:04.294Z,94573.53
2022-08-22T00:11:49.205Z,94578.88
2022-08-22T00:14:18.881Z,94581.09
2022-08-22T00:17:08.878Z,94577.69
2022-08-22T00:20:03.248Z,94571.13
2022-08-22T00:22:50.368Z,94579.81
2022-08-22T00:25:49.334Z,94593.03
2022-08-22T00:28:23.342Z,94580.13
2022-08-22T00:30:56.367Z,94577.09
2022-08-22T00:33:34.418Z,94567.50
2022-08-22T00:36:24.008Z,94553.06
2022-08-22T00:39:05.983Z,94566.28
2022-08-22T00:41:50.927Z,94562.31
2022-08-22T00:44:35.799Z,94564.59
2022-08-22T00:47:11.743Z,94547.78
2022-08-22T00:50:12.820Z,94559.41
2022-08-22T00:53:11.867Z,94583.56
2022-08-22T00:56:09.263Z,94572.78
2022-08-22T00:59:18.083Z,94567.97
2022-08-22T01:02:11.269Z,94581.09
2022-08-22T01:05:07.610Z,94542.97
2022-08-22T01:07:56.162Z,94563.22
2022-08-22T01:10:50.191Z,94568.31
2022-08-22T01:13:44.698Z,94571.47
2022-08-22T01:16:33.377Z,94558.16
2022-08-22T01:19:33.660Z,94555.47
2022-08-22T01:22:18.509Z,94549.56
2022-08-22T01:25:19.996Z,94547.72
2022-08-22T01:27:59.075Z,94559.84
2022-08-22T01:31:15.120Z,94558.44
2022-08-22T01:34:15.006Z,94575.16
2022-08-22T01:36:51.168Z,94575.78
2022-08-22T01:39:46.077Z,94574.84
2022-08-22T01:42:48.723Z,94566.13
2022-08-22T01:45:47.659Z,94567.97
2022-08-22T01:48:31.510Z,94573.31
2022-08-22T01:51:13.015Z,94581.19
2022-08-22T01:53:48.871Z,94575.06
2022-08-22T01:56:19.591Z,94580.38
2022-08-22T01:59:42.140Z,94557.69
2022-08-22T02:02:31.254Z,94569.72
2022-08-22T02:05:19.023Z,94584.47
2022-08-22T02:08:05.358Z,94577.69
2022-08-22T02:11:04.834Z,94574.25
2022-08-22T02:14:03.561Z,94578.09
2022-08-22T02:16:43.601Z,94579.44
2022-08-22T02:19:16.426Z,94577.03
2022-08-22T02:22:04.779Z,94557.53
2022-08-22T02:24:37.976Z,94541.06
2022-08-22T02:27:24.006Z,94572.53
2022-08-22T02:30:04.018Z,94577.09
2022-08-22T02:32:37.351Z,94562.91
2022-08-22T02:35:10.809Z,94571.75
2022-08-22T02:37:50.242Z,94580.75
2022-08-22T02:40:26.154Z,94576.78
2022-08-22T02:43:24.291Z,94577.78
2022-08-22T02:46:00.246Z,94566.53
2022-08-22T02:48:45.005Z,94550.91
2022-08-22T02:51:20.135Z,94566.59
2022-08-22T02:53:49.757Z,94551.31
2022-08-22T02:56:23.526Z,94544.34
2022-08-22T02:58:53.532Z,94544.94
2022-08-22T03:01:32.479Z,94553.72
2022-08-22T03:04:30.093Z,94558.13
2022-08-22T03:07:18.597Z,94555.44
2022-08-22T03:10:03.785Z,94536.53
2022-08-22T03:12:33.607Z,94554.59
2022-08-22T03:15:08.916Z,94565.72
2022-08-22T03:18:21.595Z,94554.03
2022-08-22T03:20:59.151Z,94556.47
2022-08-22T03:23:43.185Z,94557.34
2022-08-22T03:26:30.992Z,94565.91
2022-08-22T03:29:06.190Z,94566.75
2022-08-22T03:31:33.343Z,94570.91
2022-08-22T03:34:22.344Z,94563.88
2022-08-22T03:37:11.885Z,94561.25
2022-08-22T03:39:50.879Z,94550.38
2022-08-22T03:42:23.548Z,94549.94
2022-08-22T03:45:31.982Z,94548.84
2022-08-22T03:48:04.613Z,94556.09
2022-08-22T03:50:58.843Z,94574.34
2022-08-22T03:53:44.358Z,94572.56
2022-08-22T03:56:30.526Z,94569.06
2022-08-22T03:59:42.604Z,94578.63
2022-08-22T04:02:33.439Z,94571.06
2022-08-22T04:05:35.848Z,94574.50
2022-08-22T04:08:18.187Z,94533.63
2022-08-22T04:11:03.952Z,94563.16
2022-08-22T04:14:03.593Z,94545.28
2022-08-22T04:17:08.980Z,94565.13
2022-08-22T04:19:48.569Z,94527.81
2022-08-22T04:22:52.513Z,94573.47
2022-08-22T04:25:28.046Z,94577.81
2022-08-22T04:28:19.489Z,94565.59
2022-08-22T04:30:56.413Z,94510.72
2022-08-22T04:33:26.513Z,94540.81
2022-08-22T04:36:03.440Z,94545.19
2022-08-22T04:38:42.937Z,94542.22
2022-08-22T04:41:18.451Z,94530.88
2022-08-22T04:43:53.137Z,94582.41
2022-08-22T04:46:45.551Z,94575.22
2022-08-22T04:49:35.268Z,94564.22
2022-08-22T04:52:15.550Z,94581.66
2022-08-22T04:55:21.524Z,94564.03
2022-08-22T04:58:06.452Z,94547.31
2022-08-22T05:01:16.806Z,94537.56
2022-08-22T05:03:58.225Z,94572.31
2022-08-22T05:06:29.042Z,94580.56
2022-08-22T05:09:01.282Z,94590.88
2022-08-22T05:11:30.490Z,94574.25
2022-08-22T05:14:02.230Z,94573.28
2022-08-22T05:16:34.467Z,94606.38
2022-08-22T05:19:08.144Z,94603.44
2022-08-22T05:21:40.623Z,94622.75
2022-08-22T05:24:28.049Z,94624.63
2022-08-22T05:27:01.677Z,94616.03
2022-08-22T05:29:31.475Z,94623.06
2022-08-22T05:32:03.596Z,94579.28
2022-08-22T05:34:40.124Z,94590.41
2022-08-22T05:37:24.546Z,94616.84
2022-08-22T05:39:57.980Z,94616.56
2022-08-22T05:42:34.432Z,94631.97
2022-08-22T05:45:03.858Z,94618.81
2022-08-22T05:47:33.760Z,94604.53
2022-08-22T05:50:07.184Z,94606.69
2022-08-22T05:52:52.716Z,94596.66
2022-08-22T05:55:22.219Z,94588.53
2022-08-22T05:58:09.555Z,94602.78
2022-08-22T06:00:42.146Z,94605.06
2022-08-22T06:03:26.695Z,94598.81
2022-08-22T06:05:57.449Z,94617.69
2022-08-22T06:08:31.904Z,94613.78
2022-08-22T06:11:05.703Z,94600.84
2022-08-22T06:13:41.310Z,94643.78
2022-08-22T06:16:11.952Z,94629.28
2022-08-22T06:18:41.347Z,94627.59
2022-08-22T06:21:13.507Z,94591.94
2022-08-22T06:23:56.752Z,94604.19
2022-08-22T06:26:28.479Z,94619.56
2022-08-22T06:29:00.563Z,94641.38
2022-08-22T06:31:43.571Z,94597.00
2022-08-22T06:34:31.162Z,94602.25
2022-08-22T06:37:02.444Z,94626.13
2022-08-22T06:39:35.817Z,94635.66
2022-08-22T06:42:05.841Z,94639.53
2022-08-22T06:44:43.390Z,94622.00
2022-08-22T06:47:24.805Z,94613.59
2022-08-22T06:49:57.677Z,94606.91
2022-08-22T06:52:27.323Z,94629.03
2022-08-22T06:55:09.299Z,94602.59
2022-08-22T06:57:49.006Z,94622.31
2022-08-22T07:00:17.452Z,94617.25
2022-08-22T07:02:48.948Z,94620.88
2022-08-22T07:05:26.366Z,94644.66
2022-08-22T07:07:53.323Z,94635.59
2022-08-22T07:10:22.586Z,94627.81
2022-08-22T07:12:53.267Z,94657.47
2022-08-22T07:15:37.194Z,94637.41
2022-08-22T07:18:17.769Z,94619.31
2022-08-22T07:20:51.000Z,94623.28
2022-08-22T07:23:34.570Z,94618.06
2022-08-22T07:26:04.310Z,94612.69
2022-08-22T07:28:57.930Z,94629.16
2022-08-22T07:31:40.396Z,94648.09
2022-08-22T07:34:23.139Z,94652.56
2022-08-22T07:37:08.374Z,94616.75
2022-08-22T07:39:53.805Z,94636.91
2022-08-22T07:42:58.663Z,94636.78
2022-08-22T07:45:35.195Z,94653.19
2022-08-22T07:49:08.097Z,94629.22
2022-08-22T07:52:05.128Z,94643.09
2022-08-22T07:54:33.157Z,94652.75
2022-08-22T07:57:08.080Z,94641.56
2022-08-22T07:59:39.315Z,94629.50
2022-08-22T08:02:12.211Z,94633.31
2022-08-22T08:04:41.311Z,94674.53
2022-08-22T08:07:11.924Z,94635.59
2022-08-22T08:09:44.551Z,94630.38
2022-08-22T08:12:12.603Z,94628.75
2022-08-22T08:14:46.013Z,94645.69
2022-08-22T08:17:32.264Z,94625.88
2022-08-22T08:20:06.041Z,94631.78
2022-08-22T08:22:34.015Z,94634.34
2022-08-22T08:25:02.689Z,94641.88
2022-08-22T08:27:52.641Z,94647.09
2022-08-22T08:30:38.646Z,94613.06
2022-08-22T08:33:25.349Z,94619.91
2022-08-22T08:36:16.601Z,94633.25
2022-08-22T08:38:58.187Z,94618.75
2022-08-22T08:41:36.851Z,94619.16
2022-08-22T08:44:03.694Z,94620.81
2022-08-22T08:46:55.879Z,94641.84
2022-08-22T08:49:38.751Z,94635.53
2022-08-22T08:52:28.496Z,94648.44
2022-08-22T08:55:02.334Z,94637.88
2022-08-22T08:58:17.674Z,94645.78
2022-08-22T09:01:02.091Z,94665.00
2022-08-22T09:03:59.150Z,94659.09
2022-08-22T09:06:52.735Z,94685.41
2022-08-22T09:09:55.598Z,94663.44
2022-08-22T09:12:36.732Z,94683.31
2022-08-22T09:16:04.288Z,94687.00
2022-08-22T09:18:53.903Z,94607.50
2022-08-22T09:21:38.979Z,94661.66
2022-08-22T09:24:08.454Z,94643.31
2022-08-22T09:27:13.963Z,94650.53
2022-08-22T09:30:05.084Z,94645.38
2022-08-22T09:32:44.485Z,94618.56
2022-08-22T09:35:31.080Z,94621.66
2022-08-22T09:38:26.674Z,94640.84
2022-08-22T09:41:11.437Z,94629.34
2022-08-22T09:43:45.691Z,94627.72
2022-08-22T09:46:32.004Z,94645.72
2022-08-22T09:49:13.138Z,94631.56
2022-08-22T09:51:45.036Z,94650.84
2022-08-22T09:54:23.117Z,94647.66
2022-08-22T09:56:56.630Z,94620.69
2022-08-22T09:59:42.870Z,94614.25
2022-08-22T10:02:31.576Z,94609.31
2022-08-22T10:05:35.149Z,94640.69
2022-08-22T10:08:14.630Z,94648.34
2022-08-22T10:11:24.048Z,94612.09
2022-08-22T10:14:01.514Z,94613.13
2022-08-22T10:16:34.687Z,94625.84
2022-08-22T10:19:24.610Z,94638.31
2022-08-22T10:22:14.593Z,94602.53
2022-08-22T10:25:10.613Z,94614.13
2022-08-22T10:27:40.892Z,94610.84
2022-08-22T10:30:16.438Z,94620.13
2022-08-22T10:32:49.689Z,94646.66
2022-08-22T10:35:22.713Z,94625.59
2022-08-22T10:38:06.809Z,94641.34
2022-08-22T10:40:59.518Z,94650.13
2022-08-22T10:43:49.801Z,94627.38
2022-08-22T10:46:39.015Z,94639.47
2022-08-22T10:49:36.894Z,94665.56
2022-08-22T10:52:15.773Z,94635.63
2022-08-22T10:55:01.926Z,94612.28
2022-08-22T10:58:04.782Z,94652.94
2022-08-22T11:00:59.991Z,94615.03
2022-08-22T11:04:05.151Z,94617.03
2022-08-22T11:06:46.784Z,94623.53
2022-08-22T11:09:36.832Z,94636.19
2022-08-22T11:12:16.040Z,94638.00
2022-08-22T11:15:05.106Z,94650.75
2022-08-22T11:17:41.635Z,94637.06
2022-08-22T11:20:19.583Z,94619.91
2022-08-22T11:23:05.151Z,94641.75
2022-08-22T11:25:52.454Z,94637.31
2022-08-22T11:28:42.271Z,94624.63
2022-08-22T11:31:16.343Z,94625.66
2022-08-22T11:33:54.886Z,94627.25
2022-08-22T11:36:37.247Z,94629.97
2022-08-22T11:39:19.185Z,94646.78
2022-08-22T11:41:55.002Z,94679.88
2022-08-22T11:44:31.282Z,94631.16
2022-08-22T11:47:01.878Z,94644.63
2022-08-22T11:49:43.897Z,94616.94
2022-08-22T11:52:39.491Z,94634.91
2022-08-22T11:55:16.761Z,94614.72
2022-08-22T11:57:48.103Z,94634.44
2022-08-22T12:00:25.311Z,94649.47
2022-08-22T12:03:23.341Z,94648.34
2022-08-22T12:06:19.094Z,94607.19
2022-08-22T12:08:51.919Z,94632.44
2022-08-22T12:11:33.034Z,94622.81
2022-08-22T12:14:06.612Z,94656.63
2022-08-22T12:16:48.910Z,94620.66
2022-08-22T12:19:32.691Z,94627.47
2022-08-22T12:22:14.838Z,94624.94
2022-08-22T12:25:05.882Z,94620.28
2022-08-22T12:27:57.045Z,94634.44
2022-08-22T12:31:05.576Z,94627.78
2022-08-22T12:33:52.229Z,94605.97
2022-08-22T12:36:38.451Z,94603.97
2022-08-22T12:39:30.720Z,94625.66
2022-08-22T12:42:06.293Z,94614.00
2022-08-22T12:44:57.573Z,94610.31
2022-08-22T12:47:37.380Z,94633.63
2022-08-22T12:50:43.761Z,94608.03
2022-08-22T12:53:54.479Z,94607.09
2022-08-22T12:56:47.471Z,94630.69
2022-08-22T12:59:29.470Z,94625.94
2022-08-22T13:02:02.358Z,94620.25
2022-08-22T13:04:34.256Z,94636.53
2022-08-22T13:07:32.915Z,94635.69
2022-08-22T13:10:22.382Z,94629.25
2022-08-22T13:12:53.966Z,94646.63
2022-08-22T13:15:20.900Z,94642.25
2022-08-22T13:17:51.910Z,94652.47
2022-08-22T13:20:31.132Z,94647.75
2022-08-22T13:23:01.096Z,94620.44
2022-08-22T13:25:30.904Z,94634.81
2022-08-22T13:28:01.245Z,94643.53
2022-08-22T13:30:37.454Z,94635.81
2022-08-22T13:33:10.218Z,94653.59
2022-08-22T13:35:54.831Z,94642.69
2022-08-22T13:38:33.971Z,94643.00
2022-08-22T13:41:03.295Z,94648.16
2022-08-22T13:43:54.873Z,94641.47
2022-08-22T13:46:28.194Z,94614.88
2022-08-22T13:49:00.773Z,94614.00
2022-08-22T13:51:36.360Z,94594.19
2022-08-22T13:54:40.242Z,94597.50
2022-08-22T13:57:07.629Z,94602.16
2022-08-22T14:00:06.575Z,94588.84
2022-08-22T14:03:08.000Z,94586.97
2022-08-22T14:05:38.953Z,94580.69
2022-08-22T14:08:32.110Z,94589.75
2022-08-22T14:11:11.293Z,94602.84
2022-08-22T14:13:49.127Z,94590.84
2022-08-22T14:16:39.881Z,94605.31
2022-08-22T14:19:15.546Z,94574.22
2022-08-22T14:21:42.435Z,94592.41
2022-08-22T14:24:31.482Z,94590.97
2022-08-22T14:27:05.646Z,94584.41
2022-08-22T14:29:59.409Z,94587.47
2022-08-22T14:32:29.711Z,94576.16
2022-08-22T14:35:29.232Z,94585.22
2022-08-22T14:38:17.319Z,94576.72
2022-08-22T14:40:45.574Z,94590.88
2022-08-22T14:43:45.530Z,94583.13
2022-08-22T14:46:21.831Z,94591.28
2022-08-22T14:48:55.957Z,94565.50
2022-08-22T14:51:26.586Z,94576.16
2022-08-22T14:54:10.140Z,94565.41
2022-08-22T14:56:42.799Z,94560.97
2022-08-22T14:59:23.865Z,94564.69
2022-08-22T15:01:57.631Z,94571.47
2022-08-22T15:04:33.798Z,94573.59
2022-08-22T15:07:02.440Z,94587.56
2022-08-22T15:09:32.062Z,94590.06
2022-08-22T15:12:01.580Z,94571.53
2022-08-22T15:14:37.956Z,94570.88
2022-08-22T15:17:09.197Z,94585.75
2022-08-22T15:19:41.066Z,94583.78
2022-08-22T15:22:13.761Z,94577.41
2022-08-22T15:24:54.957Z,94589.72
2022-08-22T15:27:25.801Z,94594.03
2022-08-22T15:30:02.573Z,94594.53
2022-08-22T15:32:35.422Z,94598.72
2022-08-22T15:35:17.769Z,94609.06
2022-08-22T15:37:56.031Z,94594.19
2022-08-22T15:40:34.815Z,94614.59
2022-08-22T15:43:22.439Z,94580.75
2022-08-22T15:46:07.303Z,94578.06
2022-08-22T15:48:39.127Z,94599.34
2022-08-22T15:51:13.562Z,94590.56
2022-08-22T15:54:16.117Z,94595.97
2022-08-22T15:57:12.814Z,94598.38
2022-08-22T15:59:53.895Z,94590.91
2022-08-22T16:02:40.225Z,94565.34
2022-08-22T16:05:10.618Z,94567.50
2022-08-22T16:07:37.411Z,94551.63
2022-08-22T16:10:31.488Z,94553.03
2022-08-22T16:13:32.279Z,94567.38
2022-08-22T16:16:13.460Z,94564.91
2022-08-22T16:18:40.223Z,94563.09
2022-08-22T16:21:09.008Z,94570.31
2022-08-22T16:23:54.056Z,94569.19
2022-08-22T16:26:36.997Z,94560.88
2022-08-22T16:29:04.013Z,94561.09
2022-08-22T16:31:58.015Z,94567.47
2022-08-22T16:34:38.353Z,94559.53
2022-08-22T16:37:14.767Z,94558.50
2022-08-22T16:39:48.886Z,94560.78
2022-08-22T16:42:20.751Z,94559.44
2022-08-22T16:44:56.594Z,94573.97
2022-08-22T16:47:32.773Z,94563.03
2022-08-22T16:50:09.437Z,94566.28
2022-08-22T16:53:05.558Z,94581.75
2022-08-22T16:55:35.764Z,94572.09
2022-08-22T16:58:14.582Z,94581.50
2022-08-22T17:01:15.472Z,94571.00
2022-08-22T17:04:25.514Z,94573.81
2022-08-22T17:07:06.833Z,94579.25
2022-08-22T17:09:49.278Z,94576.47
2022-08-22T17:12:33.343Z,94581.59
2022-08-22T17:15:24.333Z,94584.63
2022-08-22T17:18:28.586Z,94589.88
2022-08-22T17:21:36.550Z,94583.78
2022-08-22T17:24:33.779Z,94599.16
2022-08-22T17:27:06.018Z,94602.59
2022-08-22T17:29:52.039Z,94586.31
2022-08-22T17:32:28.042Z,94596.78
2022-08-22T17:35:16.923Z,94612.94
2022-08-22T17:38:07.854Z,94623.28
2022-08-22T17:40:38.242Z,94617.06
2022-08-22T17:43:19.043Z,94609.59
2022-08-22T17:45:55.387Z,94611.72
2022-08-22T17:49:03.870Z,94607.03
2022-08-22T17:51:39.182Z,94604.34
2022-08-22T17:54:08.828Z,94610.63
2022-08-22T17:57:00.339Z,94602.84
2022-08-22T17:59:59.694Z,94609.72
2022-08-22T18:02:26.611Z,94618.22
2022-08-22T18:05:17.959Z,94608.72
2022-08-22T18:07:44.789Z,94617.06
2022-08-22T18:10:17.321Z,94617.84
2022-08-22T18:12:56.455Z,94626.78
2022-08-22T18:15:30.897Z,94619.28
2022-08-22T18:18:09.646Z,94613.13
2022-08-22T18:20:59.578Z,94606.91
2022-08-22T18:23:39.872Z,94621.38
2022-08-22T18:26:24.611Z,94610.09
2022-08-22T18:29:11.126Z,94599.53
2022-08-22T18:32:05.000Z,94591.81
2022-08-22T18:34:31.730Z,94585.88
2022-08-22T18:37:35.380Z,94593.50
2022-08-22T18:40:08.490Z,94606.22
2022-08-22T18:42:44.273Z,94603.00
2022-08-22T18:45:44.034Z,94618.97
2022-08-22T18:48:19.306Z,94594.53
2022-08-22T18:50:47.553Z,94600.00
2022-08-22T18:53:37.755Z,94604.97
2022-08-22T18:56:45.633Z,94594.50
2022-08-22T18:59:37.115Z,94593.41
2022-08-22T19:02:56.063Z,94595.44
2022-08-22T19:05:44.766Z,94596.53
2022-08-22T19:08:36.408Z,94606.59
2022-08-22T19:11:37.172Z,94605.06
2022-08-22T19:14:22.571Z,94603.28
2022-08-22T19:17:07.745Z,94618.78
2022-08-22T19:20:08.345Z,94623.16
2022-08-22T19:22:36.885Z,94609.88
2022-08-22T19:25:11.267Z,94614.72
2022-08-22T19:27:42.228Z,94624.03
2022-08-22T19:30:45.641Z,94623.25
2022-08-22T19:33:39.988Z,94622.00
2022-08-22T19:36:11.336Z,94625.50
2022-08-22T19:39:00.024Z,94636.13
2022-08-22T19:41:45.856Z,94613.00
2022-08-22T19:44:33.446Z,94624.66
2022-08-22T19:47:07.980Z,94615.03
2022-08-22T19:49:41.662Z,94619.38
2022-08-22T19:52:20.027Z,94619.09
2022-08-22T19:55:12.901Z,94614.31
2022-08-22T19:58:02.642Z,94614.56
2022-08-22T20:00:53.932Z,94631.75
2022-08-22T20:03:42.076Z,94617.47
2022-08-22T20:06:44.874Z,94634.50
2022-08-22T20:09:44.361Z,94630.56
2022-08-22T20:12:15.720Z,94636.94
2022-08-22T20:14:46.073Z,94626.53
2022-08-22T20:17:26.577Z,94626.13
2022-08-22T20:20:24.515Z,94624.03
2022-08-22T20:23:15.810Z,94640.66
2022-08-22T20:25:51.104Z,94625.31
2022-08-22T20:28:45.312Z,94628.53
2022-08-22T20:31:23.300Z,94628.25
2022-08-22T20:33:57.759Z,94633.03
2022-08-22T20:36:27.838Z,94640.72
2022-08-22T20:39:01.700Z,94632.22
2022-08-22T20:41:40.885Z,94625.69
2022-08-22T20:44:17.022Z,94630.16
2022-08-22T20:47:11.537Z,94610.28
2022-08-22T20:49:56.554Z,94598.78
2022-08-22T20:52:33.991Z,94617.72
2022-08-22T20:55:12.059Z,94626.31
2022-08-22T20:57:56.158Z,94634.13
2022-08-22T21:00:35.481Z,94627.97
2022-08-22T21:03:02.609Z,94621.28
2022-08-22T21:05:37.243Z,94627.72
2022-08-22T21:08:14.349Z,94622.81
2022-08-22T21:11:00.970Z,94627.25
2022-08-22T21:13:32.507Z,94634.34
2022-08-22T21:16:19.209Z,94625.53
2022-08-22T21:18:53.735Z,94634.69
2022-08-22T21:21:25.266Z,94635.31
2022-08-22T21:23:57.423Z,94625.38
2022-08-22T21:26:31.507Z,94624.31
2022-08-22T21:29:02.899Z,94623.25
2022-08-22T21:31:52.970Z,94623.47
2022-08-22T21:34:24.762Z,94617.69
2022-08-22T21:36:54.842Z,94636.38
2022-08-22T21:39:27.103Z,94622.19
2022-08-22T21:42:11.506Z,94636.63
2022-08-22T21:44:59.403Z,94617.97
2022-08-22T21:47:31.881Z,94629.72
2022-08-22T21:50:13.296Z,94612.56
2022-08-22T21:52:41.601Z,94608.31
2022-08-22T21:55:15.939Z,94606.25
2022-08-22T21:57:43.300Z,94615.84
2022-08-22T22:00:52.955Z,94621.94
2022-08-22T22:03:23.295Z,94639.63
2022-08-22T22:05:54.813Z,94637.56
2022-08-22T22:08:21.718Z,94623.25
2022-08-22T22:10:49.820Z,94635.38
2022-08-22T22:13:19.242Z,94606.75
2022-08-22T22:15:48.455Z,94633.50
2022-08-22T22:18:22.644Z,94632.81
2022-08-22T22:20:51.870Z,94626.13
2022-08-22T22:23:19.294Z,94636.47
2022-08-22T22:25:47.414Z,94629.66
2022-08-22T22:28:34.569Z,94633.44
2022-08-22T22:31:01.723Z,94643.09
2022-08-22T22:33:32.197Z,94640.81
2022-08-22T22:36:04.921Z,94635.41
2022-08-22T22:38:32.314Z,94640.75
2022-08-22T22:40:59.304Z,94635.88
2022-08-22T22:43:28.082Z,94645.00
2022-08-22T22:45:55.046Z,94643.53
2022-08-22T22:48:24.726Z,94647.91
2022-08-22T22:50:53.604Z,94633.84
2022-08-22T22:53:21.469Z,94636.97
2022-08-22T22:56:07.502Z,94651.53
2022-08-22T22:58:37.030Z,94650.34
2022-08-22T23:01:18.992Z,94663.69
2022-08-22T23:03:46.882Z,94656.22
2022-08-22T23:06:19.891Z,94640.00
2022-08-22T23:08:47.646Z,94649.16
2022-08-22T23:11:21.461Z,94643.91
2022-08-22T23:13:48.543Z,94631.56
2022-08-22T23:16:19.334Z,94656.03
2022-08-22T23:18:47.195Z,94647.03
2022-08-22T23:21:23.190Z,94636.28
2022-08-22T23:23:51.074Z,94650.69
2022-08-22T23:26:17.946Z,94651.75
2022-08-22T23:28:44.999Z,94650.00
2022-08-22T23:31:31.754Z,94643.56
2022-08-22T23:34:22.790Z,94627.75
2022-08-22T23:36:52.403Z,94633.91
2022-08-22T23:39:21.311Z,94635.97
2022-08-22T23:41:48.373Z,94591.22
2022-08-22T23:44:18.331Z,94627.06
2022-08-22T23:46:45.412Z,94627.69
2022-08-22T23:49:12.971Z,94621.16
2022-08-22T23:51:40.682Z,94621.94
2022-08-22T23:54:07.686Z,94624.69
2022-08-22T23:56:38.581Z,94604.88
2022-08-22T23:59:11.911Z,94609.63
